sensor_id;sensor_type;location;lat;lon;timestamp;P1;durP1;ratioP1;P2;durP2;ratioP2
23722;SDS011;12042;52.136;5.584;2023-03-25T06:44:29;19.17;;;3.58;;
23722;SDS011;12042;52.136;5.584;2023-03-25T06:46:55;17.80;;;3.72;;
23722;SDS011;12042;52.136;5.584;2023-03-25T06:49:21;16.65;;;3.28;;
23722;SDS011;12042;52.136;5.584;2023-03-25T06:51:47;16.25;;;3.47;;
23722;SDS011;12042;52.136;5.584;2023-03-25T06:54:12;24.90;;;3.72;;
23722;SDS011;12042;52.136;5.584;2023-03-25T06:56:39;25.33;;;3.90;;
23722;SDS011;12042;52.136;5.584;2023-03-25T06:59:05;18.13;;;3.60;;
23722;SDS011;12042;52.136;5.584;2023-03-25T07:01:30;17.50;;;3.42;;
23722;SDS011;12042;52.136;5.584;2023-03-25T07:03:56;19.15;;;3.63;;
23722;SDS011;12042;52.136;5.584;2023-03-25T07:06:22;17.90;;;3.15;;
23722;SDS011;12042;52.136;5.584;2023-03-25T07:08:48;17.92;;;3.50;;
23722;SDS011;12042;52.136;5.584;2023-03-25T07:11:15;19.60;;;3.03;;
23722;SDS011;12042;52.136;5.584;2023-03-25T07:13:43;15.40;;;3.00;;
23722;SDS011;12042;52.136;5.584;2023-03-25T07:16:09;15.75;;;2.97;;
23722;SDS011;12042;52.136;5.584;2023-03-25T07:18:35;22.83;;;3.63;;
23722;SDS011;12042;52.136;5.584;2023-03-25T07:21:01;12.15;;;2.63;;
23722;SDS011;12042;52.136;5.584;2023-03-25T07:23:27;15.77;;;3.53;;
23722;SDS011;12042;52.136;5.584;2023-03-25T07:25:53;20.65;;;3.20;;
23722;SDS011;12042;52.136;5.584;2023-03-25T07:28:19;15.75;;;3.13;;
23722;SDS011;12042;52.136;5.584;2023-03-25T07:30:44;17.90;;;3.92;;
23722;SDS011;12042;52.136;5.584;2023-03-25T07:33:10;18.73;;;3.42;;
23722;SDS011;12042;52.136;5.584;2023-03-25T07:35:36;18.10;;;3.13;;
23722;SDS011;12042;52.136;5.584;2023-03-25T07:38:01;22.17;;;4.20;;
23722;SDS011;12042;52.136;5.584;2023-03-25T07:40:28;13.18;;;3.05;;
23722;SDS011;12042;52.136;5.584;2023-03-25T07:42:53;15.73;;;3.53;;
23722;SDS011;12042;52.136;5.584;2023-03-25T07:45:19;15.02;;;3.10;;
23722;SDS011;12042;52.136;5.584;2023-03-25T07:47:44;18.45;;;3.70;;
23722;SDS011;12042;52.136;5.584;2023-03-25T07:50:15;13.07;;;3.50;;
23722;SDS011;12042;52.136;5.584;2023-03-25T07:52:44;19.92;;;4.00;;
23722;SDS011;12042;52.136;5.584;2023-03-25T07:55:10;18.70;;;3.28;;
23722;SDS011;12042;52.136;5.584;2023-03-25T07:57:36;18.75;;;3.70;;
23722;SDS011;12042;52.136;5.584;2023-03-25T08:00:02;17.75;;;4.07;;
23722;SDS011;12042;52.136;5.584;2023-03-25T08:02:30;20.17;;;3.55;;
23722;SDS011;12042;52.136;5.584;2023-03-25T08:04:55;18.73;;;4.03;;
23722;SDS011;12042;52.136;5.584;2023-03-25T08:07:21;31.15;;;4.38;;
23722;SDS011;12042;52.136;5.584;2023-03-25T08:09:47;20.83;;;4.28;;
23722;SDS011;12042;52.136;5.584;2023-03-25T08:12:13;19.85;;;4.07;;
23722;SDS011;12042;52.136;5.584;2023-03-25T08:14:38;18.95;;;3.60;;
23722;SDS011;12042;52.136;5.584;2023-03-25T08:17:05;20.55;;;3.45;;
23722;SDS011;12042;52.136;5.584;2023-03-25T08:19:31;19.15;;;3.67;;
23722;SDS011;12042;52.136;5.584;2023-03-25T08:21:57;29.05;;;4.20;;
23722;SDS011;12042;52.136;5.584;2023-03-25T08:24:23;24.30;;;4.65;;
23722;SDS011;12042;52.136;5.584;2023-03-25T08:26:51;16.70;;;3.55;;
23722;SDS011;12042;52.136;5.584;2023-03-25T08:29:18;24.73;;;4.03;;
23722;SDS011;12042;52.136;5.584;2023-03-25T08:31:44;22.30;;;4.20;;
23722;SDS011;12042;52.136;5.584;2023-03-25T08:34:16;29.50;;;4.50;;
23722;SDS011;12042;52.136;5.584;2023-03-25T08:36:44;19.60;;;3.67;;
23722;SDS011;12042;52.136;5.584;2023-03-25T08:39:10;27.00;;;3.83;;
23722;SDS011;12042;52.136;5.584;2023-03-25T08:41:36;28.88;;;3.80;;
23722;SDS011;12042;52.136;5.584;2023-03-25T08:44:03;23.10;;;3.85;;
23722;SDS011;12042;52.136;5.584;2023-03-25T08:46:30;26.30;;;3.50;;
23722;SDS011;12042;52.136;5.584;2023-03-25T08:48:56;18.17;;;3.67;;
23722;SDS011;12042;52.136;5.584;2023-03-25T08:51:22;21.75;;;4.10;;
23722;SDS011;12042;52.136;5.584;2023-03-25T08:53:48;20.52;;;3.72;;
23722;SDS011;12042;52.136;5.584;2023-03-25T08:56:13;25.75;;;3.67;;
23722;SDS011;12042;52.136;5.584;2023-03-25T08:58:39;29.17;;;3.88;;
23722;SDS011;12042;52.136;5.584;2023-03-25T09:01:05;23.73;;;4.28;;
23722;SDS011;12042;52.136;5.584;2023-03-25T09:03:31;24.38;;;3.50;;
23722;SDS011;12042;52.136;5.584;2023-03-25T09:05:57;23.65;;;4.43;;
23722;SDS011;12042;52.136;5.584;2023-03-25T09:08:27;22.80;;;4.00;;
23722;SDS011;12042;52.136;5.584;2023-03-25T09:10:53;28.30;;;3.83;;
23722;SDS011;12042;52.136;5.584;2023-03-25T09:13:20;28.02;;;4.28;;
23722;SDS011;12042;52.136;5.584;2023-03-25T09:15:46;20.48;;;3.92;;
23722;SDS011;12042;52.136;5.584;2023-03-25T09:18:11;24.83;;;4.75;;
23722;SDS011;12042;52.136;5.584;2023-03-25T09:20:37;25.80;;;3.97;;
23722;SDS011;12042;52.136;5.584;2023-03-25T09:23:03;29.42;;;4.38;;
23722;SDS011;12042;52.136;5.584;2023-03-25T09:25:28;26.08;;;4.47;;
23722;SDS011;12042;52.136;5.584;2023-03-25T09:27:54;22.60;;;4.13;;
23722;SDS011;12042;52.136;5.584;2023-03-25T09:30:19;23.45;;;3.88;;
23722;SDS011;12042;52.136;5.584;2023-03-25T09:32:45;25.70;;;4.45;;
23722;SDS011;12042;52.136;5.584;2023-03-25T09:35:11;33.08;;;4.50;;
23722;SDS011;12042;52.136;5.584;2023-03-25T09:37:36;23.63;;;3.67;;
23722;SDS011;12042;52.136;5.584;2023-03-25T09:40:02;31.20;;;4.18;;
23722;SDS011;12042;52.136;5.584;2023-03-25T09:45:38;27.35;;;4.50;;
23722;SDS011;12042;52.136;5.584;2023-03-25T09:50:51;32.70;;;4.70;;
23722;SDS011;12042;52.136;5.584;2023-03-25T09:56:10;25.67;;;3.80;;
23722;SDS011;12042;52.136;5.584;2023-03-25T09:58:44;27.77;;;4.85;;
23722;SDS011;12042;52.136;5.584;2023-03-25T10:12:43;32.22;;;4.85;;
23722;SDS011;12042;52.136;5.584;2023-03-25T10:18:04;23.23;;;3.78;;
23722;SDS011;12042;52.136;5.584;2023-03-25T10:20:37;30.05;;;4.80;;
23722;SDS011;12042;52.136;5.584;2023-03-25T10:23:29;25.98;;;3.92;;
23722;SDS011;12042;52.136;5.584;2023-03-25T10:26:03;25.02;;;4.47;;
23722;SDS011;12042;52.136;5.584;2023-03-25T10:28:35;29.08;;;4.60;;
23722;SDS011;12042;52.136;5.584;2023-03-25T10:31:08;22.30;;;3.83;;
23722;SDS011;12042;52.136;5.584;2023-03-25T10:33:40;29.85;;;4.50;;
23722;SDS011;12042;52.136;5.584;2023-03-25T10:36:15;29.23;;;5.80;;
23722;SDS011;12042;52.136;5.584;2023-03-25T10:38:43;25.48;;;4.32;;
23722;SDS011;12042;52.136;5.584;2023-03-25T10:41:18;30.75;;;6.72;;
23722;SDS011;12042;52.136;5.584;2023-03-25T10:43:50;23.10;;;4.13;;
23722;SDS011;12042;52.136;5.584;2023-03-25T10:46:21;22.13;;;3.67;;
23722;SDS011;12042;52.136;5.584;2023-03-25T10:48:52;24.48;;;4.53;;
23722;SDS011;12042;52.136;5.584;2023-03-25T10:51:18;19.45;;;3.75;;
23722;SDS011;12042;52.136;5.584;2023-03-25T10:53:56;22.90;;;3.65;;
23722;SDS011;12042;52.136;5.584;2023-03-25T10:56:26;24.83;;;4.03;;
23722;SDS011;12042;52.136;5.584;2023-03-25T10:58:56;22.30;;;3.78;;
23722;SDS011;12042;52.136;5.584;2023-03-25T11:01:31;20.00;;;4.43;;
23722;SDS011;12042;52.136;5.584;2023-03-25T11:04:00;23.63;;;4.30;;
23722;SDS011;12042;52.136;5.584;2023-03-25T11:06:29;23.20;;;3.95;;
23722;SDS011;12042;52.136;5.584;2023-03-25T11:11:52;27.88;;;5.40;;
23722;SDS011;12042;52.136;5.584;2023-03-25T11:14:22;18.65;;;3.03;;
23722;SDS011;12042;52.136;5.584;2023-03-25T11:16:58;21.80;;;3.72;;
23722;SDS011;12042;52.136;5.584;2023-03-25T11:19:35;26.50;;;4.18;;
23722;SDS011;12042;52.136;5.584;2023-03-25T11:22:10;30.65;;;4.57;;
23722;SDS011;12042;52.136;5.584;2023-03-25T11:24:41;26.20;;;3.67;;
23722;SDS011;12042;52.136;5.584;2023-03-25T11:27:10;19.50;;;3.58;;
23722;SDS011;12042;52.136;5.584;2023-03-25T11:29:48;26.88;;;4.60;;
23722;SDS011;12042;52.136;5.584;2023-03-25T11:32:38;20.35;;;3.70;;
23722;SDS011;12042;52.136;5.584;2023-03-25T11:35:17;24.92;;;3.33;;
23722;SDS011;12042;52.136;5.584;2023-03-25T11:37:54;27.92;;;3.67;;
23722;SDS011;12042;52.136;5.584;2023-03-25T11:40:22;19.75;;;3.35;;
23722;SDS011;12042;52.136;5.584;2023-03-25T11:42:51;21.10;;;3.30;;
23722;SDS011;12042;52.136;5.584;2023-03-25T11:45:23;25.23;;;3.55;;
23722;SDS011;12042;52.136;5.584;2023-03-25T11:47:58;21.50;;;4.55;;
23722;SDS011;12042;52.136;5.584;2023-03-25T11:50:32;20.77;;;3.83;;
23722;SDS011;12042;52.136;5.584;2023-03-25T11:53:00;18.38;;;3.30;;
23722;SDS011;12042;52.136;5.584;2023-03-25T11:55:28;18.92;;;3.03;;
23722;SDS011;12042;52.136;5.584;2023-03-25T11:57:57;23.48;;;3.47;;
23722;SDS011;12042;52.136;5.584;2023-03-25T12:05:24;19.45;;;3.83;;
23722;SDS011;12042;52.136;5.584;2023-03-25T12:07:52;16.95;;;3.15;;
23722;SDS011;12042;52.136;5.584;2023-03-25T12:11:04;24.48;;;3.70;;
23722;SDS011;12042;52.136;5.584;2023-03-25T12:19:04;23.05;;;3.50;;
23722;SDS011;12042;52.136;5.584;2023-03-25T12:27:33;18.05;;;3.25;;
23722;SDS011;12042;52.136;5.584;2023-03-25T12:30:43;19.60;;;3.67;;
23722;SDS011;12042;52.136;5.584;2023-03-25T12:41:34;17.40;;;3.42;;
23722;SDS011;12042;52.136;5.584;2023-03-25T12:53:26;12.95;;;2.80;;
23722;SDS011;12042;52.136;5.584;2023-03-25T12:56:25;18.50;;;3.08;;
23722;SDS011;12042;52.136;5.584;2023-03-25T12:59:15;9.68;;;2.70;;
23722;SDS011;12042;52.136;5.584;2023-03-25T13:02:18;15.55;;;3.17;;
23722;SDS011;12042;52.136;5.584;2023-03-25T13:07:39;13.10;;;2.75;;
23722;SDS011;12042;52.136;5.584;2023-03-25T13:10:14;12.90;;;2.80;;
23722;SDS011;12042;52.136;5.584;2023-03-25T13:13:18;12.05;;;2.42;;
23722;SDS011;12042;52.136;5.584;2023-03-25T13:15:51;13.70;;;2.80;;
23722;SDS011;12042;52.136;5.584;2023-03-25T13:18:42;13.18;;;3.03;;
23722;SDS011;12042;52.136;5.584;2023-03-25T13:21:16;8.68;;;2.33;;
23722;SDS011;12042;52.136;5.584;2023-03-25T13:23:47;8.68;;;1.80;;
23722;SDS011;12042;52.136;5.584;2023-03-25T13:26:18;10.80;;;2.03;;
23722;SDS011;12042;52.136;5.584;2023-03-25T13:31:18;13.00;;;2.08;;
23722;SDS011;12042;52.136;5.584;2023-03-25T13:33:47;10.68;;;2.15;;
23722;SDS011;12042;52.136;5.584;2023-03-25T13:36:30;11.25;;;2.40;;
23722;SDS011;12042;52.136;5.584;2023-03-25T13:39:04;7.80;;;2.30;;
23722;SDS011;12042;52.136;5.584;2023-03-25T13:44:24;8.13;;;2.17;;
23722;SDS011;12042;52.136;5.584;2023-03-25T13:47:04;13.40;;;2.60;;
23722;SDS011;12042;52.136;5.584;2023-03-25T13:49:36;15.10;;;3.83;;
23722;SDS011;12042;52.136;5.584;2023-03-25T13:52:07;13.55;;;2.58;;
23722;SDS011;12042;52.136;5.584;2023-03-25T13:54:34;13.40;;;2.55;;
23722;SDS011;12042;52.136;5.584;2023-03-25T14:03:02;4.90;;;1.77;;
23722;SDS011;12042;52.136;5.584;2023-03-25T14:13:17;11.50;;;2.38;;
23722;SDS011;12042;52.136;5.584;2023-03-25T14:15:59;12.07;;;2.83;;
23722;SDS011;12042;52.136;5.584;2023-03-25T14:18:29;9.40;;;2.47;;
23722;SDS011;12042;52.136;5.584;2023-03-25T14:20:56;8.52;;;2.35;;
23722;SDS011;12042;52.136;5.584;2023-03-25T14:23:42;5.82;;;1.70;;
23722;SDS011;12042;52.136;5.584;2023-03-25T14:26:08;9.60;;;1.67;;
23722;SDS011;12042;52.136;5.584;2023-03-25T14:28:36;13.18;;;2.40;;
23722;SDS011;12042;52.136;5.584;2023-03-25T14:39:10;7.97;;;2.20;;
23722;SDS011;12042;52.136;5.584;2023-03-25T14:44:32;7.88;;;2.00;;
23722;SDS011;12042;52.136;5.584;2023-03-25T14:52:43;9.32;;;2.35;;
23722;SDS011;12042;52.136;5.584;2023-03-25T14:57:49;12.52;;;2.20;;
23722;SDS011;12042;52.136;5.584;2023-03-25T15:00:28;7.13;;;2.20;;
23722;SDS011;12042;52.136;5.584;2023-03-25T15:03:03;17.67;;;3.13;;
23722;SDS011;12042;52.136;5.584;2023-03-25T15:05:35;10.05;;;2.70;;
23722;SDS011;12042;52.136;5.584;2023-03-25T15:10:38;10.02;;;2.50;;
23722;SDS011;12042;52.136;5.584;2023-03-25T15:18:09;7.30;;;2.13;;
23722;SDS011;12042;52.136;5.584;2023-03-25T15:20:35;11.13;;;2.67;;
23722;SDS011;12042;52.136;5.584;2023-03-25T15:23:20;10.88;;;2.42;;
23722;SDS011;12042;52.136;5.584;2023-03-25T15:25:54;10.77;;;2.40;;
23722;SDS011;12042;52.136;5.584;2023-03-25T15:31:22;7.40;;;1.52;;
23722;SDS011;12042;52.136;5.584;2023-03-25T15:40:21;2.22;;;0.90;;
23722;SDS011;12042;52.136;5.584;2023-03-25T15:45:53;3.20;;;1.55;;
23722;SDS011;12042;52.136;5.584;2023-03-25T15:54:09;4.00;;;1.52;;
23722;SDS011;12042;52.136;5.584;2023-03-25T15:56:46;3.78;;;1.88;;
23722;SDS011;12042;52.136;5.584;2023-03-25T15:59:20;1.63;;;1.13;;
23722;SDS011;12042;52.136;5.584;2023-03-25T16:04:58;3.38;;;1.33;;
23722;SDS011;12042;52.136;5.584;2023-03-25T16:07:25;4.68;;;1.55;;
23722;SDS011;12042;52.136;5.584;2023-03-25T16:09:54;2.70;;;1.02;;
23722;SDS011;12042;52.136;5.584;2023-03-25T16:12:21;2.55;;;1.15;;
23722;SDS011;12042;52.136;5.584;2023-03-25T16:14:52;4.82;;;1.27;;
23722;SDS011;12042;52.136;5.584;2023-03-25T16:17:18;4.35;;;1.45;;
23722;SDS011;12042;52.136;5.584;2023-03-25T16:19:48;4.30;;;1.45;;
23722;SDS011;12042;52.136;5.584;2023-03-25T16:22:30;4.03;;;1.20;;
23722;SDS011;12042;52.136;5.584;2023-03-25T16:24:59;8.38;;;1.48;;
23722;SDS011;12042;52.136;5.584;2023-03-25T16:29:57;9.35;;;1.58;;
23722;SDS011;12042;52.136;5.584;2023-03-25T16:32:30;4.55;;;1.65;;
23722;SDS011;12042;52.136;5.584;2023-03-25T16:34:58;8.30;;;1.90;;
23722;SDS011;12042;52.136;5.584;2023-03-25T16:37:24;7.50;;;2.15;;
23722;SDS011;12042;52.136;5.584;2023-03-25T16:39:52;9.13;;;2.22;;
23722;SDS011;12042;52.136;5.584;2023-03-25T16:42:26;10.90;;;2.28;;
23722;SDS011;12042;52.136;5.584;2023-03-25T16:44:59;7.15;;;1.75;;
23722;SDS011;12042;52.136;5.584;2023-03-25T16:47:25;7.68;;;2.17;;
23722;SDS011;12042;52.136;5.584;2023-03-25T16:49:52;5.63;;;1.60;;
23722;SDS011;12042;52.136;5.584;2023-03-25T16:52:26;4.10;;;1.27;;
23722;SDS011;12042;52.136;5.584;2023-03-25T16:57:26;7.03;;;1.83;;
23722;SDS011;12042;52.136;5.584;2023-03-25T16:59:58;5.40;;;1.40;;
23722;SDS011;12042;52.136;5.584;2023-03-25T17:02:56;5.47;;;1.80;;
23722;SDS011;12042;52.136;5.584;2023-03-25T17:05:24;7.30;;;1.40;;
23722;SDS011;12042;52.136;5.584;2023-03-25T17:07:55;6.80;;;1.40;;
23722;SDS011;12042;52.136;5.584;2023-03-25T17:10:24;6.97;;;1.65;;
23722;SDS011;12042;52.136;5.584;2023-03-25T17:12:55;9.27;;;1.70;;
23722;SDS011;12042;52.136;5.584;2023-03-25T17:15:22;8.55;;;2.25;;
23722;SDS011;12042;52.136;5.584;2023-03-25T17:17:50;8.15;;;1.73;;
23722;SDS011;12042;52.136;5.584;2023-03-25T17:20:21;9.70;;;2.58;;
23722;SDS011;12042;52.136;5.584;2023-03-25T17:22:56;11.25;;;2.80;;
23722;SDS011;12042;52.136;5.584;2023-03-25T17:27:55;13.18;;;2.28;;
23722;SDS011;12042;52.136;5.584;2023-03-25T17:35:54;11.18;;;3.40;;
23722;SDS011;12042;52.136;5.584;2023-03-25T17:38:27;13.20;;;2.55;;
23722;SDS011;12042;52.136;5.584;2023-03-25T17:40:58;8.90;;;2.60;;
23722;SDS011;12042;52.136;5.584;2023-03-25T17:43:28;12.73;;;2.90;;
23722;SDS011;12042;52.136;5.584;2023-03-25T17:45:56;14.40;;;3.05;;
23722;SDS011;12042;52.136;5.584;2023-03-25T17:48:22;13.38;;;3.22;;
23722;SDS011;12042;52.136;5.584;2023-03-25T17:50:49;14.70;;;3.92;;
23722;SDS011;12042;52.136;5.584;2023-03-25T17:53:16;16.42;;;5.47;;
23722;SDS011;12042;52.136;5.584;2023-03-25T17:55:42;13.32;;;3.92;;
23722;SDS011;12042;52.136;5.584;2023-03-25T17:58:09;15.85;;;3.88;;
23722;SDS011;12042;52.136;5.584;2023-03-25T18:00:34;13.85;;;3.75;;
23722;SDS011;12042;52.136;5.584;2023-03-25T18:03:07;17.67;;;3.20;;
23722;SDS011;12042;52.136;5.584;2023-03-25T18:05:34;14.95;;;3.40;;
23722;SDS011;12042;52.136;5.584;2023-03-25T18:08:00;21.67;;;3.50;;
23722;SDS011;12042;52.136;5.584;2023-03-25T18:10:27;15.85;;;3.75;;
23722;SDS011;12042;52.136;5.584;2023-03-25T18:12:53;19.25;;;3.35;;
23722;SDS011;12042;52.136;5.584;2023-03-25T18:15:19;15.32;;;2.70;;
23722;SDS011;12042;52.136;5.584;2023-03-25T18:17:45;11.32;;;3.05;;
23722;SDS011;12042;52.136;5.584;2023-03-25T18:20:12;13.18;;;2.40;;
23722;SDS011;12042;52.136;5.584;2023-03-25T18:22:42;11.50;;;2.53;;
23722;SDS011;12042;52.136;5.584;2023-03-25T18:25:08;9.75;;;2.85;;
23722;SDS011;12042;52.136;5.584;2023-03-25T18:27:35;8.13;;;2.60;;
23722;SDS011;12042;52.136;5.584;2023-03-25T18:30:05;12.68;;;3.58;;
23722;SDS011;12042;52.136;5.584;2023-03-25T18:32:40;15.27;;;3.78;;
23722;SDS011;12042;52.136;5.584;2023-03-25T18:35:06;20.52;;;4.43;;
23722;SDS011;12042;52.136;5.584;2023-03-25T18:37:32;12.93;;;3.45;;
23722;SDS011;12042;52.136;5.584;2023-03-25T18:39:58;12.38;;;2.90;;
23722;SDS011;12042;52.136;5.584;2023-03-25T18:42:23;9.32;;;2.75;;
23722;SDS011;12042;52.136;5.584;2023-03-25T18:44:49;9.65;;;3.08;;
23722;SDS011;12042;52.136;5.584;2023-03-25T18:47:14;16.77;;;3.30;;
23722;SDS011;12042;52.136;5.584;2023-03-25T18:49:40;11.60;;;3.00;;
23722;SDS011;12042;52.136;5.584;2023-03-25T18:52:05;8.70;;;2.97;;
23722;SDS011;12042;52.136;5.584;2023-03-25T18:54:31;11.68;;;2.65;;
23722;SDS011;12042;52.136;5.584;2023-03-25T18:56:56;8.75;;;2.13;;
23722;SDS011;12042;52.136;5.584;2023-03-25T18:59:22;8.80;;;2.97;;
23722;SDS011;12042;52.136;5.584;2023-03-25T19:01:48;9.38;;;2.92;;
23722;SDS011;12042;52.136;5.584;2023-03-25T19:04:13;13.73;;;3.65;;
23722;SDS011;12042;52.136;5.584;2023-03-25T19:06:39;10.30;;;3.08;;
23722;SDS011;12042;52.136;5.584;2023-03-25T19:09:05;14.55;;;3.33;;
23722;SDS011;12042;52.136;5.584;2023-03-25T19:11:33;11.13;;;2.97;;
23722;SDS011;12042;52.136;5.584;2023-03-25T19:13:59;11.50;;;3.58;;
23722;SDS011;12042;52.136;5.584;2023-03-25T19:16:25;12.20;;;3.15;;
23722;SDS011;12042;52.136;5.584;2023-03-25T19:18:51;11.63;;;3.67;;
23722;SDS011;12042;52.136;5.584;2023-03-25T19:21:17;8.85;;;3.25;;
23722;SDS011;12042;52.136;5.584;2023-03-25T19:23:43;7.72;;;3.33;;
23722;SDS011;12042;52.136;5.584;2023-03-25T19:26:09;9.52;;;2.85;;
23722;SDS011;12042;52.136;5.584;2023-03-25T19:28:35;7.50;;;2.88;;
23722;SDS011;12042;52.136;5.584;2023-03-25T19:31:00;9.20;;;2.78;;
23722;SDS011;12042;52.136;5.584;2023-03-25T19:33:26;12.68;;;4.05;;
23722;SDS011;12042;52.136;5.584;2023-03-25T19:35:55;14.48;;;3.38;;
23722;SDS011;12042;52.136;5.584;2023-03-25T19:38:23;10.40;;;3.55;;
23722;SDS011;12042;52.136;5.584;2023-03-25T19:40:50;11.90;;;3.65;;
23722;SDS011;12042;52.136;5.584;2023-03-25T19:43:24;9.02;;;2.90;;
23722;SDS011;12042;52.136;5.584;2023-03-25T19:45:53;15.00;;;3.75;;
23722;SDS011;12042;52.136;5.584;2023-03-25T19:48:20;9.95;;;3.85;;
23722;SDS011;12042;52.136;5.584;2023-03-25T19:50:45;11.35;;;3.75;;
23722;SDS011;12042;52.136;5.584;2023-03-25T19:53:11;9.77;;;3.72;;
23722;SDS011;12042;52.136;5.584;2023-03-25T19:55:40;14.77;;;4.05;;
23722;SDS011;12042;52.136;5.584;2023-03-25T19:58:07;24.20;;;4.95;;
23722;SDS011;12042;52.136;5.584;2023-03-25T20:00:32;15.77;;;4.95;;
23722;SDS011;12042;52.136;5.584;2023-03-25T20:02:58;19.63;;;5.10;;
23722;SDS011;12042;52.136;5.584;2023-03-25T20:05:25;21.77;;;4.93;;
23722;SDS011;12042;52.136;5.584;2023-03-25T20:07:52;21.08;;;4.65;;
23722;SDS011;12042;52.136;5.584;2023-03-25T20:10:22;23.73;;;5.07;;
23722;SDS011;12042;52.136;5.584;2023-03-25T20:12:52;20.50;;;5.55;;
23722;SDS011;12042;52.136;5.584;2023-03-25T20:15:18;18.73;;;5.78;;
23722;SDS011;12042;52.136;5.584;2023-03-25T20:17:46;20.48;;;5.68;;
23722;SDS011;12042;52.136;5.584;2023-03-25T20:20:13;26.25;;;6.00;;
23722;SDS011;12042;52.136;5.584;2023-03-25T20:22:39;23.23;;;6.00;;
23722;SDS011;12042;52.136;5.584;2023-03-25T20:25:05;24.25;;;6.40;;
23722;SDS011;12042;52.136;5.584;2023-03-25T20:27:32;31.52;;;5.93;;
23722;SDS011;12042;52.136;5.584;2023-03-25T20:29:58;23.23;;;6.32;;
23722;SDS011;12042;52.136;5.584;2023-03-25T20:32:24;31.92;;;6.90;;
23722;SDS011;12042;52.136;5.584;2023-03-25T20:34:50;29.23;;;6.50;;
23722;SDS011;12042;52.136;5.584;2023-03-25T20:37:16;23.70;;;5.88;;
23722;SDS011;12042;52.136;5.584;2023-03-25T20:39:42;26.63;;;6.10;;
23722;SDS011;12042;52.136;5.584;2023-03-25T20:42:08;30.38;;;6.32;;
23722;SDS011;12042;52.136;5.584;2023-03-25T20:44:34;28.92;;;5.70;;
23722;SDS011;12042;52.136;5.584;2023-03-25T20:47:00;30.65;;;6.15;;
23722;SDS011;12042;52.136;5.584;2023-03-25T20:49:26;30.60;;;6.30;;
23722;SDS011;12042;52.136;5.584;2023-03-25T20:51:52;31.42;;;6.30;;
23722;SDS011;12042;52.136;5.584;2023-03-25T20:54:21;27.40;;;6.47;;
23722;SDS011;12042;52.136;5.584;2023-03-25T20:56:47;28.63;;;6.25;;
23722;SDS011;12042;52.136;5.584;2023-03-25T20:59:15;32.75;;;6.25;;
23722;SDS011;12042;52.136;5.584;2023-03-25T21:01:42;32.50;;;7.50;;
23722;SDS011;12042;52.136;5.584;2023-03-25T21:04:08;32.10;;;6.88;;
23722;SDS011;12042;52.136;5.584;2023-03-25T21:06:35;35.10;;;7.32;;
23722;SDS011;12042;52.136;5.584;2023-03-25T21:09:02;45.08;;;8.52;;
23722;SDS011;12042;52.136;5.584;2023-03-25T21:11:29;40.35;;;9.13;;
23722;SDS011;12042;52.136;5.584;2023-03-25T21:13:55;38.92;;;8.13;;
23722;SDS011;12042;52.136;5.584;2023-03-25T21:16:21;39.58;;;7.95;;
23722;SDS011;12042;52.136;5.584;2023-03-25T21:18:46;36.10;;;7.15;;
23722;SDS011;12042;52.136;5.584;2023-03-25T21:21:14;32.13;;;6.88;;
23722;SDS011;12042;52.136;5.584;2023-03-25T21:23:40;39.35;;;7.85;;
23722;SDS011;12042;52.136;5.584;2023-03-25T21:26:07;33.58;;;8.07;;
23722;SDS011;12042;52.136;5.584;2023-03-25T21:28:34;35.20;;;8.52;;
23722;SDS011;12042;52.136;5.584;2023-03-25T21:31:08;43.00;;;9.00;;
23722;SDS011;12042;52.136;5.584;2023-03-25T21:33:39;36.85;;;9.50;;
23722;SDS011;12042;52.136;5.584;2023-03-25T21:36:06;37.92;;;9.38;;
23722;SDS011;12042;52.136;5.584;2023-03-25T21:38:33;40.20;;;8.88;;
